sensor_id;sensor_type;location;lat;lon;timestamp;temperature;humidity
484;DHT22;228;48.922;12.198;2022-11-14T00:02:00;9.00;70.60
484;DHT22;228;48.922;12.198;2022-11-14T00:04:45;8.80;71.10
484;DHT22;228;48.922;12.198;2022-11-14T00:07:30;9.00;71.40
484;DHT22;228;48.922;12.198;2022-11-14T00:10:15;9.30;70.00
484;DHT22;228;48.922;12.198;2022-11-14T00:13:00;9.50;68.70
484;DHT22;228;48.922;12.198;2022-11-14T00:15:48;9.20;69.10
484;DHT22;228;48.922;12.198;2022-11-14T00:18:34;9.00;71.20
484;DHT22;228;48.922;12.198;2022-11-14T00:21:19;9.30;70.00
484;DHT22;228;48.922;12.198;2022-11-14T00:24:03;9.10;70.00
484;DHT22;228;48.922;12.198;2022-11-14T00:26:48;9.50;69.60
484;DHT22;228;48.922;12.198;2022-11-14T00:29:33;9.60;69.20
484;DHT22;228;48.922;12.198;2022-11-14T00:32:18;9.50;69.40
484;DHT22;228;48.922;12.198;2022-11-14T00:35:03;9.40;69.60
484;DHT22;228;48.922;12.198;2022-11-14T00:37:48;9.20;70.10
484;DHT22;228;48.922;12.198;2022-11-14T00:40:33;9.30;70.60
484;DHT22;228;48.922;12.198;2022-11-14T00:43:18;9.00;71.20
484;DHT22;228;48.922;12.198;2022-11-14T00:46:02;9.00;71.20
484;DHT22;228;48.922;12.198;2022-11-14T00:48:47;9.20;71.40
484;DHT22;228;48.922;12.198;2022-11-14T00:51:32;9.30;70.70
484;DHT22;228;48.922;12.198;2022-11-14T00:54:16;9.30;71.80
484;DHT22;228;48.922;12.198;2022-11-14T00:57:01;9.60;70.10
484;DHT22;228;48.922;12.198;2022-11-14T00:59:46;9.80;69.20
484;DHT22;228;48.922;12.198;2022-11-14T01:02:31;9.70;70.10
484;DHT22;228;48.922;12.198;2022-11-14T01:05:16;9.50;68.80
484;DHT22;228;48.922;12.198;2022-11-14T01:08:00;9.30;70.00
484;DHT22;228;48.922;12.198;2022-11-14T01:10:49;9.30;71.20
484;DHT22;228;48.922;12.198;2022-11-14T01:13:34;9.20;71.00
484;DHT22;228;48.922;12.198;2022-11-14T01:16:18;9.20;71.40
484;DHT22;228;48.922;12.198;2022-11-14T01:19:04;9.10;71.50
484;DHT22;228;48.922;12.198;2022-11-14T01:21:49;9.00;71.60
484;DHT22;228;48.922;12.198;2022-11-14T01:24:34;9.30;70.80
484;DHT22;228;48.922;12.198;2022-11-14T01:27:18;9.60;70.10
484;DHT22;228;48.922;12.198;2022-11-14T01:30:03;9.40;69.80
484;DHT22;228;48.922;12.198;2022-11-14T01:32:48;9.10;71.70
484;DHT22;228;48.922;12.198;2022-11-14T01:35:34;9.20;71.20
484;DHT22;228;48.922;12.198;2022-11-14T01:38:20;9.40;71.20
484;DHT22;228;48.922;12.198;2022-11-14T01:41:05;9.30;70.80
484;DHT22;228;48.922;12.198;2022-11-14T01:43:49;9.60;70.40
484;DHT22;228;48.922;12.198;2022-11-14T01:46:37;9.40;70.40
484;DHT22;228;48.922;12.198;2022-11-14T01:49:26;9.40;70.40
484;DHT22;228;48.922;12.198;2022-11-14T01:52:35;9.50;70.00
484;DHT22;228;48.922;12.198;2022-11-14T01:55:21;9.30;70.60
484;DHT22;228;48.922;12.198;2022-11-14T01:58:06;9.30;70.60
484;DHT22;228;48.922;12.198;2022-11-14T02:00:51;9.40;70.30
484;DHT22;228;48.922;12.198;2022-11-14T02:03:38;9.70;69.60
484;DHT22;228;48.922;12.198;2022-11-14T02:06:26;9.70;68.90
484;DHT22;228;48.922;12.198;2022-11-14T02:09:12;9.60;69.40
484;DHT22;228;48.922;12.198;2022-11-14T02:11:58;9.50;69.80
484;DHT22;228;48.922;12.198;2022-11-14T02:14:47;9.70;69.60
484;DHT22;228;48.922;12.198;2022-11-14T02:17:34;9.80;68.80
484;DHT22;228;48.922;12.198;2022-11-14T02:20:21;9.40;69.60
484;DHT22;228;48.922;12.198;2022-11-14T02:23:09;9.40;70.40
484;DHT22;228;48.922;12.198;2022-11-14T02:25:55;9.40;70.80
484;DHT22;228;48.922;12.198;2022-11-14T02:28:40;9.50;70.50
484;DHT22;228;48.922;12.198;2022-11-14T02:31:24;9.40;70.80
484;DHT22;228;48.922;12.198;2022-11-14T02:34:09;9.70;69.50
484;DHT22;228;48.922;12.198;2022-11-14T02:36:54;9.90;68.90
484;DHT22;228;48.922;12.198;2022-11-14T02:39:39;9.80;68.60
484;DHT22;228;48.922;12.198;2022-11-14T02:42:27;9.80;68.60
484;DHT22;228;48.922;12.198;2022-11-14T02:45:17;9.70;68.80
484;DHT22;228;48.922;12.198;2022-11-14T02:48:04;9.80;68.50
484;DHT22;228;48.922;12.198;2022-11-14T02:50:48;9.50;69.10
484;DHT22;228;48.922;12.198;2022-11-14T02:53:33;9.20;70.20
484;DHT22;228;48.922;12.198;2022-11-14T02:56:18;9.30;70.70
484;DHT22;228;48.922;12.198;2022-11-14T02:59:03;9.30;70.50
484;DHT22;228;48.922;12.198;2022-11-14T03:01:47;9.20;70.30
484;DHT22;228;48.922;12.198;2022-11-14T03:04:32;9.40;70.20
484;DHT22;228;48.922;12.198;2022-11-14T03:07:17;9.70;69.10
484;DHT22;228;48.922;12.198;2022-11-14T03:10:02;9.90;68.00
484;DHT22;228;48.922;12.198;2022-11-14T03:12:47;10.00;66.20
484;DHT22;228;48.922;12.198;2022-11-14T03:15:35;9.80;67.50
484;DHT22;228;48.922;12.198;2022-11-14T03:18:20;9.90;67.30
484;DHT22;228;48.922;12.198;2022-11-14T03:21:11;9.80;67.30
484;DHT22;228;48.922;12.198;2022-11-14T03:23:57;9.70;67.50
484;DHT22;228;48.922;12.198;2022-11-14T03:26:42;9.70;67.80
484;DHT22;228;48.922;12.198;2022-11-14T03:29:27;9.60;68.10
484;DHT22;228;48.922;12.198;2022-11-14T03:32:11;9.50;68.00
484;DHT22;228;48.922;12.198;2022-11-14T03:35:11;9.50;68.60
484;DHT22;228;48.922;12.198;2022-11-14T03:37:55;9.50;67.80
484;DHT22;228;48.922;12.198;2022-11-14T03:40:40;9.50;67.30
484;DHT22;228;48.922;12.198;2022-11-14T03:43:25;9.50;67.30
484;DHT22;228;48.922;12.198;2022-11-14T03:46:10;9.40;67.20
484;DHT22;228;48.922;12.198;2022-11-14T03:48:54;9.30;67.00
484;DHT22;228;48.922;12.198;2022-11-14T03:51:39;9.20;66.90
484;DHT22;228;48.922;12.198;2022-11-14T03:54:24;9.10;68.10
484;DHT22;228;48.922;12.198;2022-11-14T03:57:09;8.90;67.70
484;DHT22;228;48.922;12.198;2022-11-14T03:59:53;8.90;68.80
484;DHT22;228;48.922;12.198;2022-11-14T04:02:38;8.80;69.60
484;DHT22;228;48.922;12.198;2022-11-14T04:05:23;8.70;69.30
484;DHT22;228;48.922;12.198;2022-11-14T04:08:08;8.70;69.00
484;DHT22;228;48.922;12.198;2022-11-14T04:10:52;8.60;69.10
484;DHT22;228;48.922;12.198;2022-11-14T04:13:37;8.50;69.40
484;DHT22;228;48.922;12.198;2022-11-14T04:16:22;8.30;71.00
484;DHT22;228;48.922;12.198;2022-11-14T04:19:07;8.30;70.50
484;DHT22;228;48.922;12.198;2022-11-14T04:21:51;8.40;69.50
484;DHT22;228;48.922;12.198;2022-11-14T04:24:36;8.30;69.80
484;DHT22;228;48.922;12.198;2022-11-14T04:27:21;8.30;70.70
484;DHT22;228;48.922;12.198;2022-11-14T04:30:06;8.30;71.80
484;DHT22;228;48.922;12.198;2022-11-14T04:32:51;8.50;71.90
484;DHT22;228;48.922;12.198;2022-11-14T04:35:35;8.50;71.90
484;DHT22;228;48.922;12.198;2022-11-14T04:38:20;8.50;72.00
484;DHT22;228;48.922;12.198;2022-11-14T04:41:05;8.70;71.70
484;DHT22;228;48.922;12.198;2022-11-14T04:43:49;8.80;72.30
484;DHT22;228;48.922;12.198;2022-11-14T04:46:34;8.80;71.60
484;DHT22;228;48.922;12.198;2022-11-14T04:49:19;8.80;71.90
484;DHT22;228;48.922;12.198;2022-11-14T04:52:04;8.80;71.20
484;DHT22;228;48.922;12.198;2022-11-14T04:54:49;8.70;70.90
484;DHT22;228;48.922;12.198;2022-11-14T04:57:33;8.70;71.00
484;DHT22;228;48.922;12.198;2022-11-14T05:00:18;8.70;70.30
484;DHT22;228;48.922;12.198;2022-11-14T05:03:03;8.70;69.80
484;DHT22;228;48.922;12.198;2022-11-14T05:05:48;8.60;69.90
484;DHT22;228;48.922;12.198;2022-11-14T05:08:33;8.50;69.50
484;DHT22;228;48.922;12.198;2022-11-14T05:11:19;8.40;70.00
484;DHT22;228;48.922;12.198;2022-11-14T05:14:04;8.50;70.40
484;DHT22;228;48.922;12.198;2022-11-14T05:16:49;8.50;70.00
484;DHT22;228;48.922;12.198;2022-11-14T05:19:33;8.40;70.30
484;DHT22;228;48.922;12.198;2022-11-14T05:22:18;8.20;70.00
484;DHT22;228;48.922;12.198;2022-11-14T05:25:04;8.10;70.30
484;DHT22;228;48.922;12.198;2022-11-14T05:27:50;8.10;70.10
484;DHT22;228;48.922;12.198;2022-11-14T05:30:34;8.00;69.70
484;DHT22;228;48.922;12.198;2022-11-14T05:33:19;8.00;70.70
484;DHT22;228;48.922;12.198;2022-11-14T05:36:06;8.00;70.70
484;DHT22;228;48.922;12.198;2022-11-14T05:38:52;7.70;71.10
484;DHT22;228;48.922;12.198;2022-11-14T05:41:37;7.50;71.80
484;DHT22;228;48.922;12.198;2022-11-14T05:44:22;7.50;72.10
484;DHT22;228;48.922;12.198;2022-11-14T05:47:06;7.60;71.40
484;DHT22;228;48.922;12.198;2022-11-14T05:49:51;7.60;71.00
484;DHT22;228;48.922;12.198;2022-11-14T05:52:36;7.20;71.50
484;DHT22;228;48.922;12.198;2022-11-14T05:55:20;7.10;72.10
484;DHT22;228;48.922;12.198;2022-11-14T05:58:05;7.20;72.30
484;DHT22;228;48.922;12.198;2022-11-14T06:00:50;7.20;72.00
484;DHT22;228;48.922;12.198;2022-11-14T06:03:37;7.20;71.40
484;DHT22;228;48.922;12.198;2022-11-14T06:06:23;7.20;71.00
484;DHT22;228;48.922;12.198;2022-11-14T06:09:07;7.10;70.60
484;DHT22;228;48.922;12.198;2022-11-14T06:11:52;7.00;71.60
484;DHT22;228;48.922;12.198;2022-11-14T06:14:37;6.80;71.70
484;DHT22;228;48.922;12.198;2022-11-14T06:17:21;6.70;71.70
484;DHT22;228;48.922;12.198;2022-11-14T06:20:07;6.50;71.80
484;DHT22;228;48.922;12.198;2022-11-14T06:22:55;6.60;72.50
484;DHT22;228;48.922;12.198;2022-11-14T06:25:40;6.70;72.60
484;DHT22;228;48.922;12.198;2022-11-14T06:28:24;6.80;72.50
484;DHT22;228;48.922;12.198;2022-11-14T06:31:09;6.70;73.30
484;DHT22;228;48.922;12.198;2022-11-14T06:33:54;6.70;74.20
484;DHT22;228;48.922;12.198;2022-11-14T06:36:40;6.90;73.40
484;DHT22;228;48.922;12.198;2022-11-14T06:39:24;7.00;71.80
484;DHT22;228;48.922;12.198;2022-11-14T06:42:09;7.20;72.00
484;DHT22;228;48.922;12.198;2022-11-14T06:44:54;7.40;71.50
484;DHT22;228;48.922;12.198;2022-11-14T06:47:39;7.40;71.10
484;DHT22;228;48.922;12.198;2022-11-14T06:50:23;7.30;70.80
484;DHT22;228;48.922;12.198;2022-11-14T06:53:08;7.40;71.30
484;DHT22;228;48.922;12.198;2022-11-14T06:56:01;7.40;72.00
484;DHT22;228;48.922;12.198;2022-11-14T06:58:48;7.50;70.90
484;DHT22;228;48.922;12.198;2022-11-14T07:01:33;7.60;70.90
484;DHT22;228;48.922;12.198;2022-11-14T07:04:18;7.50;71.40
484;DHT22;228;48.922;12.198;2022-11-14T07:07:03;7.80;71.20
484;DHT22;228;48.922;12.198;2022-11-14T07:09:47;8.00;70.20
484;DHT22;228;48.922;12.198;2022-11-14T07:12:32;8.20;69.50
484;DHT22;228;48.922;12.198;2022-11-14T07:15:17;8.30;69.10
484;DHT22;228;48.922;12.198;2022-11-14T07:18:02;8.50;68.20
484;DHT22;228;48.922;12.198;2022-11-14T07:20:46;8.50;68.10
484;DHT22;228;48.922;12.198;2022-11-14T07:23:32;8.50;67.90
484;DHT22;228;48.922;12.198;2022-11-14T07:26:17;8.60;67.90
484;DHT22;228;48.922;12.198;2022-11-14T07:29:02;8.70;67.20
484;DHT22;228;48.922;12.198;2022-11-14T07:31:47;8.90;67.00
484;DHT22;228;48.922;12.198;2022-11-14T07:34:32;9.10;66.80
484;DHT22;228;48.922;12.198;2022-11-14T07:37:17;9.20;66.80
484;DHT22;228;48.922;12.198;2022-11-14T07:40:02;9.30;67.10
484;DHT22;228;48.922;12.198;2022-11-14T07:42:48;9.40;66.80
484;DHT22;228;48.922;12.198;2022-11-14T07:45:35;9.60;66.60
484;DHT22;228;48.922;12.198;2022-11-14T07:48:21;9.80;66.30
484;DHT22;228;48.922;12.198;2022-11-14T07:51:12;10.00;64.50
484;DHT22;228;48.922;12.198;2022-11-14T07:53:59;10.30;64.50
484;DHT22;228;48.922;12.198;2022-11-14T07:56:44;10.50;64.20
484;DHT22;228;48.922;12.198;2022-11-14T07:59:28;10.70;63.80
484;DHT22;228;48.922;12.198;2022-11-14T08:02:14;10.70;64.40
484;DHT22;228;48.922;12.198;2022-11-14T08:04:59;10.90;64.80
484;DHT22;228;48.922;12.198;2022-11-14T08:07:44;10.90;65.70
484;DHT22;228;48.922;12.198;2022-11-14T08:10:29;11.10;64.30
484;DHT22;228;48.922;12.198;2022-11-14T08:13:14;11.30;64.40
484;DHT22;228;48.922;12.198;2022-11-14T08:16:02;11.20;64.40
484;DHT22;228;48.922;12.198;2022-11-14T08:18:50;11.40;64.40
484;DHT22;228;48.922;12.198;2022-11-14T08:21:35;11.80;63.60
484;DHT22;228;48.922;12.198;2022-11-14T08:24:20;12.00;62.40
484;DHT22;228;48.922;12.198;2022-11-14T08:27:08;12.20;61.90
484;DHT22;228;48.922;12.198;2022-11-14T08:29:57;12.50;61.00
484;DHT22;228;48.922;12.198;2022-11-14T08:32:41;12.50;60.50
484;DHT22;228;48.922;12.198;2022-11-14T08:35:26;12.20;61.20
484;DHT22;228;48.922;12.198;2022-11-14T08:38:11;11.90;62.10
484;DHT22;228;48.922;12.198;2022-11-14T08:40:59;11.50;63.60
484;DHT22;228;48.922;12.198;2022-11-14T08:43:44;11.50;63.90
484;DHT22;228;48.922;12.198;2022-11-14T08:46:29;11.70;63.30
484;DHT22;228;48.922;12.198;2022-11-14T08:49:14;11.40;64.00
484;DHT22;228;48.922;12.198;2022-11-14T08:51:59;11.50;64.40
484;DHT22;228;48.922;12.198;2022-11-14T08:54:43;11.80;63.50
484;DHT22;228;48.922;12.198;2022-11-14T08:57:28;12.10;62.50
484;DHT22;228;48.922;12.198;2022-11-14T09:00:13;12.20;62.60
484;DHT22;228;48.922;12.198;2022-11-14T09:02:58;12.10;63.30
484;DHT22;228;48.922;12.198;2022-11-14T09:05:43;11.40;65.80
484;DHT22;228;48.922;12.198;2022-11-14T09:08:29;11.40;67.40
484;DHT22;228;48.922;12.198;2022-11-14T09:11:13;11.40;67.40
484;DHT22;228;48.922;12.198;2022-11-14T09:13:58;11.50;67.50
484;DHT22;228;48.922;12.198;2022-11-14T09:16:46;11.70;67.80
484;DHT22;228;48.922;12.198;2022-11-14T09:19:31;12.10;66.40
484;DHT22;228;48.922;12.198;2022-11-14T09:22:15;12.00;65.90
484;DHT22;228;48.922;12.198;2022-11-14T09:25:00;12.20;66.70
484;DHT22;228;48.922;12.198;2022-11-14T09:27:45;12.50;65.60
484;DHT22;228;48.922;12.198;2022-11-14T09:30:30;12.70;65.00
484;DHT22;228;48.922;12.198;2022-11-14T09:33:15;13.20;64.30
484;DHT22;228;48.922;12.198;2022-11-14T09:36:02;13.30;64.30
484;DHT22;228;48.922;12.198;2022-11-14T09:38:50;13.50;64.10
484;DHT22;228;48.922;12.198;2022-11-14T09:45:04;13.40;64.00
484;DHT22;228;48.922;12.198;2022-11-14T09:48:18;13.60;65.00
484;DHT22;228;48.922;12.198;2022-11-14T09:51:13;13.00;65.00
484;DHT22;228;48.922;12.198;2022-11-14T09:54:22;13.60;65.20
484;DHT22;228;48.922;12.198;2022-11-14T09:57:16;14.10;64.00
484;DHT22;228;48.922;12.198;2022-11-14T10:00:23;14.50;63.10
484;DHT22;228;48.922;12.198;2022-11-14T10:10:10;14.20;61.90
484;DHT22;228;48.922;12.198;2022-11-14T10:16:09;14.80;62.10
484;DHT22;228;48.922;12.198;2022-11-14T10:19:12;14.90;61.50
484;DHT22;228;48.922;12.198;2022-11-14T10:22:35;15.10;60.90
484;DHT22;228;48.922;12.198;2022-11-14T10:35:01;15.50;58.50
484;DHT22;228;48.922;12.198;2022-11-14T10:37:52;15.40;58.80
484;DHT22;228;48.922;12.198;2022-11-14T10:40:51;15.70;59.40
484;DHT22;228;48.922;12.198;2022-11-14T10:43:44;16.30;57.70
484;DHT22;228;48.922;12.198;2022-11-14T10:46:40;16.00;57.50
484;DHT22;228;48.922;12.198;2022-11-14T10:49:32;15.90;58.10
484;DHT22;228;48.922;12.198;2022-11-14T10:52:21;16.20;57.60
484;DHT22;228;48.922;12.198;2022-11-14T10:55:17;15.80;57.30
484;DHT22;228;48.922;12.198;2022-11-14T10:58:10;15.80;58.70
484;DHT22;228;48.922;12.198;2022-11-14T11:04:35;16.60;57.00
484;DHT22;228;48.922;12.198;2022-11-14T11:07:24;16.80;56.60
484;DHT22;228;48.922;12.198;2022-11-14T11:10:28;17.00;56.40
484;DHT22;228;48.922;12.198;2022-11-14T11:13:50;16.80;54.60
484;DHT22;228;48.922;12.198;2022-11-14T11:16:36;17.50;53.80
484;DHT22;228;48.922;12.198;2022-11-14T11:19:24;18.50;50.20
484;DHT22;228;48.922;12.198;2022-11-14T11:22:34;19.50;48.40
484;DHT22;228;48.922;12.198;2022-11-14T11:25:28;20.60;46.10
484;DHT22;228;48.922;12.198;2022-11-14T11:28:20;21.20;42.30
484;DHT22;228;48.922;12.198;2022-11-14T11:31:07;21.50;42.30
484;DHT22;228;48.922;12.198;2022-11-14T11:33:53;21.30;42.10
484;DHT22;228;48.922;12.198;2022-11-14T11:36:42;21.30;42.20
484;DHT22;228;48.922;12.198;2022-11-14T11:39:34;21.30;41.90
484;DHT22;228;48.922;12.198;2022-11-14T11:42:34;21.10;42.10
484;DHT22;228;48.922;12.198;2022-11-14T11:45:21;20.10;42.60
484;DHT22;228;48.922;12.198;2022-11-14T11:48:18;20.20;43.90
484;DHT22;228;48.922;12.198;2022-11-14T11:51:08;20.30;45.00
484;DHT22;228;48.922;12.198;2022-11-14T11:54:08;20.60;43.80
484;DHT22;228;48.922;12.198;2022-11-14T11:57:12;21.30;42.50
484;DHT22;228;48.922;12.198;2022-11-14T12:00:15;22.20;41.10
484;DHT22;228;48.922;12.198;2022-11-14T12:03:01;23.10;38.60
484;DHT22;228;48.922;12.198;2022-11-14T12:09:20;22.90;37.80
484;DHT22;228;48.922;12.198;2022-11-14T12:15:23;21.90;39.80
484;DHT22;228;48.922;12.198;2022-11-14T12:21:46;21.70;39.60
484;DHT22;228;48.922;12.198;2022-11-14T12:31:18;23.90;35.80
484;DHT22;228;48.922;12.198;2022-11-14T12:34:14;25.30;33.30
484;DHT22;228;48.922;12.198;2022-11-14T12:37:26;26.30;31.50
484;DHT22;228;48.922;12.198;2022-11-14T12:40:29;27.50;30.00
484;DHT22;228;48.922;12.198;2022-11-14T12:43:37;27.70;29.50
484;DHT22;228;48.922;12.198;2022-11-14T12:52:48;27.00;29.50
484;DHT22;228;48.922;12.198;2022-11-14T13:10:39;23.90;36.60
484;DHT22;228;48.922;12.198;2022-11-14T13:13:24;24.90;35.80
484;DHT22;228;48.922;12.198;2022-11-14T13:16:31;26.20;32.40
484;DHT22;228;48.922;12.198;2022-11-14T13:19:44;27.80;29.80
484;DHT22;228;48.922;12.198;2022-11-14T13:22:47;27.00;29.60
484;DHT22;228;48.922;12.198;2022-11-14T13:25:32;26.30;32.00
484;DHT22;228;48.922;12.198;2022-11-14T13:31:22;26.80;30.40
484;DHT22;228;48.922;12.198;2022-11-14T13:51:31;20.60;40.80
484;DHT22;228;48.922;12.198;2022-11-14T13:54:16;19.80;44.70
484;DHT22;228;48.922;12.198;2022-11-14T14:00:19;19.50;44.00
484;DHT22;228;48.922;12.198;2022-11-14T14:12:57;17.20;49.50
484;DHT22;228;48.922;12.198;2022-11-14T14:20:34;16.30;51.00
484;DHT22;228;48.922;12.198;2022-11-14T14:26:49;16.20;52.50
484;DHT22;228;48.922;12.198;2022-11-14T14:32:36;16.10;53.50
484;DHT22;228;48.922;12.198;2022-11-14T14:35:27;16.20;54.20
484;DHT22;228;48.922;12.198;2022-11-14T14:38:22;16.10;54.80
484;DHT22;228;48.922;12.198;2022-11-14T14:41:09;16.10;54.90
484;DHT22;228;48.922;12.198;2022-11-14T14:43:55;15.70;56.20
484;DHT22;228;48.922;12.198;2022-11-14T14:46:40;15.50;56.40
484;DHT22;228;48.922;12.198;2022-11-14T14:49:28;15.40;56.50
484;DHT22;228;48.922;12.198;2022-11-14T14:55:20;15.30;56.20
484;DHT22;228;48.922;12.198;2022-11-14T15:01:09;15.20;56.30
484;DHT22;228;48.922;12.198;2022-11-14T15:04:07;15.10;56.40
484;DHT22;228;48.922;12.198;2022-11-14T15:06:53;14.90;57.00
484;DHT22;228;48.922;12.198;2022-11-14T15:09:54;14.70;57.30
484;DHT22;228;48.922;12.198;2022-11-14T15:12:45;14.60;57.90
484;DHT22;228;48.922;12.198;2022-11-14T15:15:30;14.50;58.20
484;DHT22;228;48.922;12.198;2022-11-14T15:18:26;14.40;58.90
484;DHT22;228;48.922;12.198;2022-11-14T15:24:15;14.10;60.00
484;DHT22;228;48.922;12.198;2022-11-14T15:27:10;13.90;61.20
484;DHT22;228;48.922;12.198;2022-11-14T15:30:05;13.80;61.90
484;DHT22;228;48.922;12.198;2022-11-14T15:32:56;13.60;62.40
484;DHT22;228;48.922;12.198;2022-11-14T15:35:42;13.50;62.40
484;DHT22;228;48.922;12.198;2022-11-14T15:38:27;13.40;63.20
484;DHT22;228;48.922;12.198;2022-11-14T15:41:17;13.20;63.50
484;DHT22;228;48.922;12.198;2022-11-14T15:44:30;13.00;64.90
484;DHT22;228;48.922;12.198;2022-11-14T15:47:29;12.80;65.60
484;DHT22;228;48.922;12.198;2022-11-14T15:50:27;12.70;66.60
484;DHT22;228;48.922;12.198;2022-11-14T15:56:04;12.50;66.80
484;DHT22;228;48.922;12.198;2022-11-14T15:58:48;12.50;66.90
484;DHT22;228;48.922;12.198;2022-11-14T16:01:33;12.40;67.10
484;DHT22;228;48.922;12.198;2022-11-14T16:04:20;12.30;67.00
484;DHT22;228;48.922;12.198;2022-11-14T16:07:12;12.20;66.90
484;DHT22;228;48.922;12.198;2022-11-14T16:09:57;12.00;67.20
484;DHT22;228;48.922;12.198;2022-11-14T16:12:42;12.00;67.90
484;DHT22;228;48.922;12.198;2022-11-14T16:15:26;11.90;67.50
484;DHT22;228;48.922;12.198;2022-11-14T16:18:11;11.80;67.70
484;DHT22;228;48.922;12.198;2022-11-14T16:20:56;11.80;68.10
484;DHT22;228;48.922;12.198;2022-11-14T16:23:42;11.80;68.00
484;DHT22;228;48.922;12.198;2022-11-14T16:26:28;11.80;67.60
484;DHT22;228;48.922;12.198;2022-11-14T16:29:14;11.80;67.50
484;DHT22;228;48.922;12.198;2022-11-14T16:31:59;11.80;67.80
484;DHT22;228;48.922;12.198;2022-11-14T16:34:43;11.80;67.10
484;DHT22;228;48.922;12.198;2022-11-14T16:37:29;11.70;66.80
484;DHT22;228;48.922;12.198;2022-11-14T16:40:22;11.70;66.70
484;DHT22;228;48.922;12.198;2022-11-14T16:43:12;11.70;66.80
484;DHT22;228;48.922;12.198;2022-11-14T16:46:00;11.50;66.90
484;DHT22;228;48.922;12.198;2022-11-14T16:48:46;11.60;66.60
484;DHT22;228;48.922;12.198;2022-11-14T16:51:31;11.60;66.50
484;DHT22;228;48.922;12.198;2022-11-14T16:54:18;11.40;66.70
484;DHT22;228;48.922;12.198;2022-11-14T16:57:03;11.30;67.10
484;DHT22;228;48.922;12.198;2022-11-14T16:59:48;11.40;66.80
484;DHT22;228;48.922;12.198;2022-11-14T17:02:34;11.30;67.10
484;DHT22;228;48.922;12.198;2022-11-14T17:05:19;11.40;67.80
484;DHT22;228;48.922;12.198;2022-11-14T17:08:04;11.30;66.50
484;DHT22;228;48.922;12.198;2022-11-14T17:10:49;11.30;66.40
484;DHT22;228;48.922;12.198;2022-11-14T17:13:34;11.30;66.50
484;DHT22;228;48.922;12.198;2022-11-14T17:16:19;11.20;67.10
484;DHT22;228;48.922;12.198;2022-11-14T17:19:04;11.00;67.90
484;DHT22;228;48.922;12.198;2022-11-14T17:21:51;11.20;67.90
484;DHT22;228;48.922;12.198;2022-11-14T17:24:36;11.30;67.30
484;DHT22;228;48.922;12.198;2022-11-14T17:27:20;11.30;66.90
484;DHT22;228;48.922;12.198;2022-11-14T17:30:07;11.40;67.10
484;DHT22;228;48.922;12.198;2022-11-14T17:32:55;11.30;67.50
484;DHT22;228;48.922;12.198;2022-11-14T17:35:39;11.30;67.50
484;DHT22;228;48.922;12.198;2022-11-14T17:38:24;11.30;67.30
484;DHT22;228;48.922;12.198;2022-11-14T17:41:09;11.20;67.70
484;DHT22;228;48.922;12.198;2022-11-14T17:43:54;11.30;67.70
484;DHT22;228;48.922;12.198;2022-11-14T17:46:45;11.30;67.70
484;DHT22;228;48.922;12.198;2022-11-14T17:49:30;11.40;67.40
484;DHT22;228;48.922;12.198;2022-11-14T17:52:15;11.30;67.00
484;DHT22;228;48.922;12.198;2022-11-14T17:55:00;11.30;67.40
484;DHT22;228;48.922;12.198;2022-11-14T17:57:44;11.40;67.20
484;DHT22;228;48.922;12.198;2022-11-14T18:00:29;11.40;67.40
484;DHT22;228;48.922;12.198;2022-11-14T18:03:14;11.30;67.80
484;DHT22;228;48.922;12.198;2022-11-14T18:06:11;11.30;68.00
484;DHT22;228;48.922;12.198;2022-11-14T18:08:57;11.40;67.30
484;DHT22;228;48.922;12.198;2022-11-14T18:11:44;11.30;66.70
484;DHT22;228;48.922;12.198;2022-11-14T18:14:29;11.00;67.60
484;DHT22;228;48.922;12.198;2022-11-14T18:17:13;10.90;68.60
484;DHT22;228;48.922;12.198;2022-11-14T18:19:58;10.50;69.80
484;DHT22;228;48.922;12.198;2022-11-14T18:22:45;10.30;70.70
484;DHT22;228;48.922;12.198;2022-11-14T18:25:30;10.30;70.90
484;DHT22;228;48.922;12.198;2022-11-14T18:28:15;10.30;70.70
484;DHT22;228;48.922;12.198;2022-11-14T18:30:59;10.30;70.20
484;DHT22;228;48.922;12.198;2022-11-14T18:33:46;10.40;69.80
484;DHT22;228;48.922;12.198;2022-11-14T18:36:31;10.40;70.00
484;DHT22;228;48.922;12.198;2022-11-14T18:39:16;10.50;69.60
484;DHT22;228;48.922;12.198;2022-11-14T18:42:00;10.50;69.20
484;DHT22;228;48.922;12.198;2022-11-14T18:44:45;10.50;69.10
484;DHT22;228;48.922;12.198;2022-11-14T18:47:30;10.40;69.20
484;DHT22;228;48.922;12.198;2022-11-14T18:50:15;10.40;69.00
484;DHT22;228;48.922;12.198;2022-11-14T18:52:59;10.40;68.90
484;DHT22;228;48.922;12.198;2022-11-14T18:55:44;10.30;68.60
484;DHT22;228;48.922;12.198;2022-11-14T18:58:31;10.30;69.10
484;DHT22;228;48.922;12.198;2022-11-14T19:01:18;10.20;68.70
484;DHT22;228;48.922;12.198;2022-11-14T19:04:09;10.20;67.90
484;DHT22;228;48.922;12.198;2022-11-14T19:06:54;10.10;67.70
484;DHT22;228;48.922;12.198;2022-11-14T19:09:39;10.00;67.70
484;DHT22;228;48.922;12.198;2022-11-14T19:12:24;9.90;69.50
484;DHT22;228;48.922;12.198;2022-11-14T19:15:09;9.90;69.60
484;DHT22;228;48.922;12.198;2022-11-14T19:17:54;9.80;69.50
484;DHT22;228;48.922;12.198;2022-11-14T19:20:39;9.70;69.70
484;DHT22;228;48.922;12.198;2022-11-14T19:23:24;9.70;70.40
484;DHT22;228;48.922;12.198;2022-11-14T19:26:09;9.70;71.10
484;DHT22;228;48.922;12.198;2022-11-14T19:28:55;9.80;70.40
484;DHT22;228;48.922;12.198;2022-11-14T19:31:41;9.80;70.40
484;DHT22;228;48.922;12.198;2022-11-14T19:34:26;9.80;70.70
484;DHT22;228;48.922;12.198;2022-11-14T19:37:11;9.70;70.90
484;DHT22;228;48.922;12.198;2022-11-14T19:39:55;9.80;72.50
484;DHT22;228;48.922;12.198;2022-11-14T19:42:40;9.90;72.00
484;DHT22;228;48.922;12.198;2022-11-14T19:45:25;9.90;71.80
484;DHT22;228;48.922;12.198;2022-11-14T19:48:10;10.10;70.60
484;DHT22;228;48.922;12.198;2022-11-14T19:51:06;10.10;71.20
484;DHT22;228;48.922;12.198;2022-11-14T19:53:56;10.10;71.40
484;DHT22;228;48.922;12.198;2022-11-14T19:56:41;10.10;71.00
484;DHT22;228;48.922;12.198;2022-11-14T19:59:27;9.90;72.50
484;DHT22;228;48.922;12.198;2022-11-14T20:02:13;9.80;72.40
484;DHT22;228;48.922;12.198;2022-11-14T20:04:58;9.90;72.40
484;DHT22;228;48.922;12.198;2022-11-14T20:07:43;9.50;71.60
484;DHT22;228;48.922;12.198;2022-11-14T20:10:28;8.70;72.90
484;DHT22;228;48.922;12.198;2022-11-14T20:13:13;8.40;74.30
484;DHT22;228;48.922;12.198;2022-11-14T20:15:58;8.40;74.50
484;DHT22;228;48.922;12.198;2022-11-14T20:18:47;8.50;74.40
484;DHT22;228;48.922;12.198;2022-11-14T20:21:38;8.60;74.00
484;DHT22;228;48.922;12.198;2022-11-14T20:24:22;8.40;75.20
484;DHT22;228;48.922;12.198;2022-11-14T20:27:07;8.50;75.30
484;DHT22;228;48.922;12.198;2022-11-14T20:29:52;8.80;73.80
484;DHT22;228;48.922;12.198;2022-11-14T20:32:37;9.10;72.90
484;DHT22;228;48.922;12.198;2022-11-14T20:35:21;9.10;72.10
484;DHT22;228;48.922;12.198;2022-11-14T20:38:06;8.90;72.10
484;DHT22;228;48.922;12.198;2022-11-14T20:40:55;9.00;72.00
484;DHT22;228;48.922;12.198;2022-11-14T20:43:41;9.00;71.80